sensor_id;sensor_type;location;lat;lon;timestamp;P1;durP1;ratioP1;P2;durP2;ratioP2
2029;SDS011;1020;48.854;8.830;2023-05-07T00:00:34;5.90;;;5.50;;
2029;SDS011;1020;48.854;8.830;2023-05-07T00:03:01;5.97;;;5.47;;
2029;SDS011;1020;48.854;8.830;2023-05-07T00:05:29;4.87;;;4.43;;
2029;SDS011;1020;48.854;8.830;2023-05-07T00:07:56;3.90;;;3.40;;
2029;SDS011;1020;48.854;8.830;2023-05-07T00:10:22;3.60;;;3.40;;
2029;SDS011;1020;48.854;8.830;2023-05-07T00:12:50;4.20;;;3.80;;
2029;SDS011;1020;48.854;8.830;2023-05-07T00:15:17;5.10;;;4.00;;
2029;SDS011;1020;48.854;8.830;2023-05-07T00:17:43;3.70;;;3.40;;
2029;SDS011;1020;48.854;8.830;2023-05-07T00:20:10;3.53;;;3.33;;
2029;SDS011;1020;48.854;8.830;2023-05-07T00:22:39;4.07;;;3.77;;
2029;SDS011;1020;48.854;8.830;2023-05-07T00:25:06;3.03;;;2.83;;
2029;SDS011;1020;48.854;8.830;2023-05-07T00:27:33;3.33;;;3.10;;
2029;SDS011;1020;48.854;8.830;2023-05-07T00:30:00;4.00;;;3.67;;
2029;SDS011;1020;48.854;8.830;2023-05-07T00:32:26;4.60;;;4.30;;
2029;SDS011;1020;48.854;8.830;2023-05-07T00:34:53;4.20;;;3.87;;
2029;SDS011;1020;48.854;8.830;2023-05-07T00:37:20;4.03;;;3.63;;
2029;SDS011;1020;48.854;8.830;2023-05-07T00:39:48;4.00;;;3.70;;
2029;SDS011;1020;48.854;8.830;2023-05-07T00:42:15;3.60;;;3.30;;
2029;SDS011;1020;48.854;8.830;2023-05-07T00:44:42;3.90;;;3.60;;
2029;SDS011;1020;48.854;8.830;2023-05-07T00:47:08;4.93;;;4.10;;
2029;SDS011;1020;48.854;8.830;2023-05-07T00:49:37;3.13;;;2.93;;
2029;SDS011;1020;48.854;8.830;2023-05-07T00:52:05;3.67;;;3.47;;
2029;SDS011;1020;48.854;8.830;2023-05-07T00:54:33;4.30;;;3.93;;
2029;SDS011;1020;48.854;8.830;2023-05-07T00:57:03;3.87;;;3.57;;
2029;SDS011;1020;48.854;8.830;2023-05-07T00:59:30;4.40;;;4.00;;
2029;SDS011;1020;48.854;8.830;2023-05-07T01:01:57;5.37;;;4.93;;
2029;SDS011;1020;48.854;8.830;2023-05-07T01:04:25;3.90;;;3.60;;
2029;SDS011;1020;48.854;8.830;2023-05-07T01:06:52;4.63;;;4.33;;
2029;SDS011;1020;48.854;8.830;2023-05-07T01:09:21;6.30;;;3.93;;
2029;SDS011;1020;48.854;8.830;2023-05-07T01:11:50;4.40;;;4.10;;
2029;SDS011;1020;48.854;8.830;2023-05-07T01:14:18;4.30;;;4.00;;
2029;SDS011;1020;48.854;8.830;2023-05-07T01:16:46;4.27;;;3.90;;
2029;SDS011;1020;48.854;8.830;2023-05-07T01:19:13;4.57;;;4.20;;
2029;SDS011;1020;48.854;8.830;2023-05-07T01:21:43;5.13;;;4.30;;
2029;SDS011;1020;48.854;8.830;2023-05-07T01:24:14;4.10;;;3.80;;
2029;SDS011;1020;48.854;8.830;2023-05-07T01:26:41;5.70;;;5.20;;
2029;SDS011;1020;48.854;8.830;2023-05-07T01:29:08;5.17;;;4.80;;
2029;SDS011;1020;48.854;8.830;2023-05-07T01:31:35;4.60;;;4.20;;
2029;SDS011;1020;48.854;8.830;2023-05-07T01:34:03;5.63;;;5.20;;
2029;SDS011;1020;48.854;8.830;2023-05-07T01:36:33;5.63;;;5.23;;
2029;SDS011;1020;48.854;8.830;2023-05-07T01:39:01;5.10;;;4.60;;
2029;SDS011;1020;48.854;8.830;2023-05-07T01:41:29;5.30;;;4.90;;
2029;SDS011;1020;48.854;8.830;2023-05-07T01:43:56;4.50;;;4.20;;
2029;SDS011;1020;48.854;8.830;2023-05-07T01:46:25;5.50;;;5.00;;
2029;SDS011;1020;48.854;8.830;2023-05-07T01:48:52;5.67;;;5.23;;
2029;SDS011;1020;48.854;8.830;2023-05-07T01:51:19;6.60;;;5.30;;
2029;SDS011;1020;48.854;8.830;2023-05-07T01:53:47;6.20;;;5.60;;
2029;SDS011;1020;48.854;8.830;2023-05-07T01:56:15;5.13;;;4.70;;
2029;SDS011;1020;48.854;8.830;2023-05-07T01:58:44;5.50;;;5.00;;
2029;SDS011;1020;48.854;8.830;2023-05-07T02:01:10;5.20;;;4.90;;
2029;SDS011;1020;48.854;8.830;2023-05-07T02:03:38;6.50;;;4.97;;
2029;SDS011;1020;48.854;8.830;2023-05-07T02:06:05;5.63;;;5.23;;
2029;SDS011;1020;48.854;8.830;2023-05-07T02:08:32;5.17;;;4.77;;
2029;SDS011;1020;48.854;8.830;2023-05-07T02:10:59;5.70;;;5.30;;
2029;SDS011;1020;48.854;8.830;2023-05-07T02:13:26;5.73;;;5.20;;
2029;SDS011;1020;48.854;8.830;2023-05-07T02:15:56;5.47;;;5.00;;
2029;SDS011;1020;48.854;8.830;2023-05-07T02:18:23;6.00;;;5.57;;
2029;SDS011;1020;48.854;8.830;2023-05-07T02:20:50;5.63;;;5.10;;
2029;SDS011;1020;48.854;8.830;2023-05-07T02:23:17;4.73;;;4.43;;
2029;SDS011;1020;48.854;8.830;2023-05-07T02:25:44;6.27;;;5.80;;
2029;SDS011;1020;48.854;8.830;2023-05-07T02:28:11;5.77;;;5.37;;
2029;SDS011;1020;48.854;8.830;2023-05-07T02:30:37;5.60;;;5.20;;
2029;SDS011;1020;48.854;8.830;2023-05-07T02:33:06;6.13;;;5.63;;
2029;SDS011;1020;48.854;8.830;2023-05-07T02:35:33;6.57;;;5.97;;
2029;SDS011;1020;48.854;8.830;2023-05-07T02:38:00;5.43;;;5.03;;
2029;SDS011;1020;48.854;8.830;2023-05-07T02:40:27;5.37;;;4.97;;
2029;SDS011;1020;48.854;8.830;2023-05-07T02:42:53;5.67;;;5.20;;
2029;SDS011;1020;48.854;8.830;2023-05-07T02:45:21;5.57;;;4.90;;
2029;SDS011;1020;48.854;8.830;2023-05-07T02:47:48;4.33;;;4.03;;
2029;SDS011;1020;48.854;8.830;2023-05-07T02:50:16;5.83;;;5.20;;
2029;SDS011;1020;48.854;8.830;2023-05-07T02:52:43;7.37;;;4.90;;
2029;SDS011;1020;48.854;8.830;2023-05-07T02:55:09;5.40;;;5.00;;
2029;SDS011;1020;48.854;8.830;2023-05-07T02:57:36;5.50;;;5.10;;
2029;SDS011;1020;48.854;8.830;2023-05-07T03:02:48;5.10;;;4.70;;
2029;SDS011;1020;48.854;8.830;2023-05-07T03:05:16;5.73;;;4.50;;
2029;SDS011;1020;48.854;8.830;2023-05-07T03:07:43;6.00;;;5.40;;
2029;SDS011;1020;48.854;8.830;2023-05-07T03:10:11;6.13;;;5.30;;
2029;SDS011;1020;48.854;8.830;2023-05-07T03:12:37;5.73;;;5.27;;
2029;SDS011;1020;48.854;8.830;2023-05-07T03:15:05;5.70;;;5.20;;
2029;SDS011;1020;48.854;8.830;2023-05-07T03:17:33;5.40;;;5.00;;
2029;SDS011;1020;48.854;8.830;2023-05-07T03:19:59;5.90;;;5.40;;
2029;SDS011;1020;48.854;8.830;2023-05-07T03:22:28;7.57;;;4.97;;
2029;SDS011;1020;48.854;8.830;2023-05-07T03:24:54;6.80;;;5.40;;
2029;SDS011;1020;48.854;8.830;2023-05-07T03:27:21;5.60;;;5.20;;
2029;SDS011;1020;48.854;8.830;2023-05-07T03:29:48;5.27;;;4.87;;
2029;SDS011;1020;48.854;8.830;2023-05-07T03:32:15;6.10;;;5.60;;
2029;SDS011;1020;48.854;8.830;2023-05-07T03:34:41;6.13;;;5.63;;
2029;SDS011;1020;48.854;8.830;2023-05-07T03:37:08;4.90;;;4.40;;
2029;SDS011;1020;48.854;8.830;2023-05-07T03:39:36;6.67;;;5.23;;
2029;SDS011;1020;48.854;8.830;2023-05-07T03:42:03;5.60;;;5.13;;
2029;SDS011;1020;48.854;8.830;2023-05-07T03:44:30;5.03;;;4.63;;
2029;SDS011;1020;48.854;8.830;2023-05-07T03:46:57;5.50;;;5.00;;
2029;SDS011;1020;48.854;8.830;2023-05-07T03:49:23;5.90;;;5.40;;
2029;SDS011;1020;48.854;8.830;2023-05-07T03:51:50;5.20;;;4.73;;
2029;SDS011;1020;48.854;8.830;2023-05-07T03:54:17;5.00;;;4.60;;
2029;SDS011;1020;48.854;8.830;2023-05-07T03:56:45;4.97;;;4.47;;
2029;SDS011;1020;48.854;8.830;2023-05-07T03:59:12;4.67;;;4.37;;
2029;SDS011;1020;48.854;8.830;2023-05-07T04:01:39;5.07;;;4.67;;
2029;SDS011;1020;48.854;8.830;2023-05-07T04:04:06;5.73;;;5.27;;
2029;SDS011;1020;48.854;8.830;2023-05-07T04:06:32;5.23;;;4.77;;
2029;SDS011;1020;48.854;8.830;2023-05-07T04:08:59;5.87;;;5.37;;
2029;SDS011;1020;48.854;8.830;2023-05-07T04:11:26;5.70;;;5.20;;
2029;SDS011;1020;48.854;8.830;2023-05-07T04:13:54;5.20;;;4.80;;
2029;SDS011;1020;48.854;8.830;2023-05-07T04:16:21;5.07;;;4.67;;
2029;SDS011;1020;48.854;8.830;2023-05-07T04:18:48;5.70;;;5.20;;
2029;SDS011;1020;48.854;8.830;2023-05-07T04:21:15;4.97;;;4.60;;
2029;SDS011;1020;48.854;8.830;2023-05-07T04:23:42;6.93;;;4.73;;
2029;SDS011;1020;48.854;8.830;2023-05-07T04:26:08;5.10;;;4.70;;
2029;SDS011;1020;48.854;8.830;2023-05-07T04:28:36;4.23;;;3.90;;
2029;SDS011;1020;48.854;8.830;2023-05-07T04:31:04;5.33;;;4.83;;
2029;SDS011;1020;48.854;8.830;2023-05-07T04:33:31;4.43;;;4.07;;
2029;SDS011;1020;48.854;8.830;2023-05-07T04:35:58;5.33;;;4.83;;
2029;SDS011;1020;48.854;8.830;2023-05-07T04:38:27;5.20;;;4.80;;
2029;SDS011;1020;48.854;8.830;2023-05-07T04:40:54;4.80;;;4.50;;
2029;SDS011;1020;48.854;8.830;2023-05-07T04:43:21;4.13;;;3.83;;
2029;SDS011;1020;48.854;8.830;2023-05-07T04:45:49;5.63;;;4.50;;
2029;SDS011;1020;48.854;8.830;2023-05-07T04:48:17;4.90;;;4.50;;
2029;SDS011;1020;48.854;8.830;2023-05-07T04:50:47;4.50;;;4.20;;
2029;SDS011;1020;48.854;8.830;2023-05-07T04:53:14;4.63;;;4.27;;
2029;SDS011;1020;48.854;8.830;2023-05-07T04:55:41;4.23;;;3.93;;
2029;SDS011;1020;48.854;8.830;2023-05-07T04:58:08;4.73;;;4.33;;
2029;SDS011;1020;48.854;8.830;2023-05-07T05:00:35;4.13;;;3.83;;
2029;SDS011;1020;48.854;8.830;2023-05-07T05:03:02;4.20;;;3.87;;
2029;SDS011;1020;48.854;8.830;2023-05-07T05:05:31;4.80;;;4.40;;
2029;SDS011;1020;48.854;8.830;2023-05-07T05:07:58;4.57;;;4.27;;
2029;SDS011;1020;48.854;8.830;2023-05-07T05:10:24;4.50;;;4.10;;
2029;SDS011;1020;48.854;8.830;2023-05-07T05:12:51;4.40;;;4.00;;
2029;SDS011;1020;48.854;8.830;2023-05-07T05:15:18;4.50;;;4.10;;
2029;SDS011;1020;48.854;8.830;2023-05-07T05:17:45;4.80;;;4.50;;
2029;SDS011;1020;48.854;8.830;2023-05-07T05:20:11;3.83;;;3.63;;
2029;SDS011;1020;48.854;8.830;2023-05-07T05:22:40;4.87;;;4.47;;
2029;SDS011;1020;48.854;8.830;2023-05-07T05:25:07;4.17;;;3.87;;
2029;SDS011;1020;48.854;8.830;2023-05-07T05:27:34;3.80;;;3.57;;
2029;SDS011;1020;48.854;8.830;2023-05-07T05:30:01;4.03;;;3.73;;
2029;SDS011;1020;48.854;8.830;2023-05-07T05:32:30;4.23;;;3.63;;
2029;SDS011;1020;48.854;8.830;2023-05-07T05:34:57;3.93;;;3.60;;
2029;SDS011;1020;48.854;8.830;2023-05-07T05:37:24;5.43;;;3.97;;
2029;SDS011;1020;48.854;8.830;2023-05-07T05:39:52;4.13;;;3.73;;
2029;SDS011;1020;48.854;8.830;2023-05-07T05:42:20;3.27;;;3.07;;
2029;SDS011;1020;48.854;8.830;2023-05-07T05:44:47;3.53;;;3.30;;
2029;SDS011;1020;48.854;8.830;2023-05-07T05:47:14;4.40;;;4.00;;
2029;SDS011;1020;48.854;8.830;2023-05-07T05:49:41;4.40;;;4.00;;
2029;SDS011;1020;48.854;8.830;2023-05-07T05:52:08;4.17;;;3.87;;
2029;SDS011;1020;48.854;8.830;2023-05-07T05:54:36;4.77;;;3.70;;
2029;SDS011;1020;48.854;8.830;2023-05-07T05:57:04;4.13;;;3.83;;
2029;SDS011;1020;48.854;8.830;2023-05-07T05:59:31;3.50;;;3.30;;
2029;SDS011;1020;48.854;8.830;2023-05-07T06:01:57;5.00;;;3.43;;
2029;SDS011;1020;48.854;8.830;2023-05-07T06:04:24;3.70;;;3.50;;
2029;SDS011;1020;48.854;8.830;2023-05-07T06:06:51;3.60;;;3.30;;
2029;SDS011;1020;48.854;8.830;2023-05-07T06:09:18;3.83;;;3.53;;
2029;SDS011;1020;48.854;8.830;2023-05-07T06:11:45;3.97;;;3.57;;
2029;SDS011;1020;48.854;8.830;2023-05-07T06:14:13;3.57;;;3.27;;
2029;SDS011;1020;48.854;8.830;2023-05-07T06:16:40;3.60;;;3.30;;
2029;SDS011;1020;48.854;8.830;2023-05-07T06:19:06;3.90;;;3.60;;
2029;SDS011;1020;48.854;8.830;2023-05-07T06:21:33;3.80;;;3.60;;
2029;SDS011;1020;48.854;8.830;2023-05-07T06:24:00;4.00;;;3.60;;
2029;SDS011;1020;48.854;8.830;2023-05-07T06:26:27;3.90;;;3.60;;
2029;SDS011;1020;48.854;8.830;2023-05-07T06:28:53;3.90;;;3.60;;
2029;SDS011;1020;48.854;8.830;2023-05-07T06:31:22;3.80;;;3.50;;
2029;SDS011;1020;48.854;8.830;2023-05-07T06:33:49;3.50;;;3.30;;
2029;SDS011;1020;48.854;8.830;2023-05-07T06:36:16;4.03;;;3.70;;
2029;SDS011;1020;48.854;8.830;2023-05-07T06:38:42;3.33;;;3.07;;
2029;SDS011;1020;48.854;8.830;2023-05-07T06:41:09;3.70;;;3.40;;
2029;SDS011;1020;48.854;8.830;2023-05-07T06:43:36;3.70;;;3.50;;
2029;SDS011;1020;48.854;8.830;2023-05-07T06:46:02;5.23;;;3.57;;
2029;SDS011;1020;48.854;8.830;2023-05-07T06:48:31;3.77;;;3.57;;
2029;SDS011;1020;48.854;8.830;2023-05-07T06:50:58;3.53;;;3.23;;
2029;SDS011;1020;48.854;8.830;2023-05-07T06:53:24;7.47;;;3.87;;
2029;SDS011;1020;48.854;8.830;2023-05-07T06:55:51;3.67;;;3.37;;
2029;SDS011;1020;48.854;8.830;2023-05-07T06:58:18;4.13;;;3.87;;
2029;SDS011;1020;48.854;8.830;2023-05-07T07:00:45;4.80;;;4.30;;
2029;SDS011;1020;48.854;8.830;2023-05-07T07:03:11;4.60;;;4.27;;
2029;SDS011;1020;48.854;8.830;2023-05-07T07:05:40;4.50;;;4.13;;
2029;SDS011;1020;48.854;8.830;2023-05-07T07:08:07;3.97;;;3.67;;
2029;SDS011;1020;48.854;8.830;2023-05-07T07:10:34;3.80;;;3.50;;
2029;SDS011;1020;48.854;8.830;2023-05-07T07:13:00;4.20;;;3.90;;
2029;SDS011;1020;48.854;8.830;2023-05-07T07:15:27;3.90;;;3.60;;
2029;SDS011;1020;48.854;8.830;2023-05-07T07:17:54;3.70;;;3.40;;
2029;SDS011;1020;48.854;8.830;2023-05-07T07:20:21;3.57;;;3.37;;
2029;SDS011;1020;48.854;8.830;2023-05-07T07:22:49;4.57;;;4.27;;
2029;SDS011;1020;48.854;8.830;2023-05-07T07:25:16;3.73;;;3.53;;
2029;SDS011;1020;48.854;8.830;2023-05-07T07:27:42;3.97;;;3.57;;
2029;SDS011;1020;48.854;8.830;2023-05-07T07:30:09;6.13;;;3.50;;
2029;SDS011;1020;48.854;8.830;2023-05-07T07:32:36;4.20;;;3.90;;
2029;SDS011;1020;48.854;8.830;2023-05-07T07:35:03;3.70;;;3.50;;
2029;SDS011;1020;48.854;8.830;2023-05-07T07:37:31;4.10;;;3.80;;
2029;SDS011;1020;48.854;8.830;2023-05-07T07:39:59;4.17;;;3.87;;
2029;SDS011;1020;48.854;8.830;2023-05-07T07:42:26;4.03;;;3.83;;
2029;SDS011;1020;48.854;8.830;2023-05-07T07:44:54;3.73;;;3.50;;
2029;SDS011;1020;48.854;8.830;2023-05-07T07:47:22;3.87;;;3.67;;
2029;SDS011;1020;48.854;8.830;2023-05-07T07:49:49;4.50;;;4.20;;
2029;SDS011;1020;48.854;8.830;2023-05-07T07:52:15;5.23;;;4.30;;
2029;SDS011;1020;48.854;8.830;2023-05-07T07:54:42;4.80;;;4.40;;
2029;SDS011;1020;48.854;8.830;2023-05-07T07:57:10;5.30;;;4.10;;
2029;SDS011;1020;48.854;8.830;2023-05-07T07:59:37;4.47;;;4.17;;
2029;SDS011;1020;48.854;8.830;2023-05-07T08:02:04;4.10;;;3.80;;
2029;SDS011;1020;48.854;8.830;2023-05-07T08:04:31;4.63;;;4.27;;
2029;SDS011;1020;48.854;8.830;2023-05-07T08:06:58;4.50;;;4.20;;
2029;SDS011;1020;48.854;8.830;2023-05-07T08:09:25;4.00;;;3.70;;
2029;SDS011;1020;48.854;8.830;2023-05-07T08:11:52;3.60;;;3.40;;
2029;SDS011;1020;48.854;8.830;2023-05-07T08:14:20;4.47;;;4.07;;
2029;SDS011;1020;48.854;8.830;2023-05-07T08:16:47;3.53;;;3.23;;
2029;SDS011;1020;48.854;8.830;2023-05-07T08:19:14;4.30;;;3.90;;
2029;SDS011;1020;48.854;8.830;2023-05-07T08:21:40;3.93;;;3.67;;
2029;SDS011;1020;48.854;8.830;2023-05-07T08:24:07;3.27;;;3.00;;
2029;SDS011;1020;48.854;8.830;2023-05-07T08:26:34;3.90;;;3.60;;
2029;SDS011;1020;48.854;8.830;2023-05-07T08:29:04;3.83;;;3.60;;
2029;SDS011;1020;48.854;8.830;2023-05-07T08:31:32;3.47;;;3.23;;
2029;SDS011;1020;48.854;8.830;2023-05-07T08:33:58;3.23;;;3.03;;
2029;SDS011;1020;48.854;8.830;2023-05-07T08:36:25;3.50;;;3.20;;
2029;SDS011;1020;48.854;8.830;2023-05-07T08:38:53;3.90;;;3.60;;
2029;SDS011;1020;48.854;8.830;2023-05-07T08:41:20;4.17;;;3.87;;
2029;SDS011;1020;48.854;8.830;2023-05-07T08:43:48;7.30;;;3.93;;
2029;SDS011;1020;48.854;8.830;2023-05-07T08:46:16;3.17;;;2.97;;
2029;SDS011;1020;48.854;8.830;2023-05-07T08:48:46;3.00;;;2.90;;
2029;SDS011;1020;48.854;8.830;2023-05-07T08:51:15;2.47;;;2.33;;
2029;SDS011;1020;48.854;8.830;2023-05-07T08:53:44;2.70;;;2.50;;
2029;SDS011;1020;48.854;8.830;2023-05-07T08:56:13;2.93;;;2.73;;
2029;SDS011;1020;48.854;8.830;2023-05-07T08:58:41;2.90;;;2.70;;
2029;SDS011;1020;48.854;8.830;2023-05-07T09:01:08;3.23;;;2.93;;
2029;SDS011;1020;48.854;8.830;2023-05-07T09:03:36;2.60;;;2.40;;
2029;SDS011;1020;48.854;8.830;2023-05-07T09:06:05;2.90;;;2.70;;
2029;SDS011;1020;48.854;8.830;2023-05-07T09:08:32;3.07;;;2.87;;
2029;SDS011;1020;48.854;8.830;2023-05-07T09:11:00;2.63;;;2.53;;
2029;SDS011;1020;48.854;8.830;2023-05-07T09:13:27;3.90;;;2.53;;
2029;SDS011;1020;48.854;8.830;2023-05-07T09:15:54;2.83;;;2.63;;
2029;SDS011;1020;48.854;8.830;2023-05-07T09:18:23;2.60;;;2.40;;
2029;SDS011;1020;48.854;8.830;2023-05-07T09:20:50;2.73;;;2.53;;
2029;SDS011;1020;48.854;8.830;2023-05-07T09:23:18;3.00;;;2.80;;
2029;SDS011;1020;48.854;8.830;2023-05-07T09:25:46;3.73;;;2.07;;
2029;SDS011;1020;48.854;8.830;2023-05-07T09:28:13;2.37;;;2.27;;
2029;SDS011;1020;48.854;8.830;2023-05-07T09:30:39;2.20;;;2.10;;
2029;SDS011;1020;48.854;8.830;2023-05-07T09:33:06;3.23;;;2.20;;
2029;SDS011;1020;48.854;8.830;2023-05-07T09:35:33;2.10;;;2.00;;
2029;SDS011;1020;48.854;8.830;2023-05-07T09:38:00;2.40;;;2.23;;
2029;SDS011;1020;48.854;8.830;2023-05-07T09:40:29;2.27;;;2.03;;
2029;SDS011;1020;48.854;8.830;2023-05-07T09:43:01;3.97;;;2.83;;
2029;SDS011;1020;48.854;8.830;2023-05-07T09:45:35;2.57;;;2.40;;
2029;SDS011;1020;48.854;8.830;2023-05-07T09:48:03;2.70;;;2.50;;
2029;SDS011;1020;48.854;8.830;2023-05-07T09:50:32;2.50;;;2.40;;
2029;SDS011;1020;48.854;8.830;2023-05-07T09:53:03;2.40;;;2.30;;
2029;SDS011;1020;48.854;8.830;2023-05-07T09:55:32;3.13;;;2.93;;
2029;SDS011;1020;48.854;8.830;2023-05-07T09:57:59;2.90;;;2.60;;
2029;SDS011;1020;48.854;8.830;2023-05-07T10:00:27;5.80;;;2.60;;
2029;SDS011;1020;48.854;8.830;2023-05-07T10:02:55;3.10;;;2.90;;
2029;SDS011;1020;48.854;8.830;2023-05-07T10:05:23;3.43;;;2.97;;
2029;SDS011;1020;48.854;8.830;2023-05-07T10:07:51;3.13;;;3.00;;
2029;SDS011;1020;48.854;8.830;2023-05-07T10:10:20;3.20;;;3.00;;
2029;SDS011;1020;48.854;8.830;2023-05-07T10:12:49;2.93;;;2.73;;
2029;SDS011;1020;48.854;8.830;2023-05-07T10:15:17;3.30;;;3.00;;
2029;SDS011;1020;48.854;8.830;2023-05-07T10:17:44;2.77;;;2.67;;
2029;SDS011;1020;48.854;8.830;2023-05-07T10:20:11;2.90;;;2.70;;
2029;SDS011;1020;48.854;8.830;2023-05-07T10:22:39;2.20;;;2.00;;
2029;SDS011;1020;48.854;8.830;2023-05-07T10:25:09;2.80;;;2.60;;
2029;SDS011;1020;48.854;8.830;2023-05-07T10:27:42;3.10;;;2.83;;
2029;SDS011;1020;48.854;8.830;2023-05-07T10:30:14;3.00;;;2.80;;
2029;SDS011;1020;48.854;8.830;2023-05-07T10:32:47;3.17;;;2.87;;
2029;SDS011;1020;48.854;8.830;2023-05-07T10:35:17;3.20;;;3.03;;
2029;SDS011;1020;48.854;8.830;2023-05-07T10:37:47;3.23;;;2.97;;
2029;SDS011;1020;48.854;8.830;2023-05-07T10:40:14;3.20;;;3.00;;
2029;SDS011;1020;48.854;8.830;2023-05-07T10:45:27;3.90;;;3.60;;
2029;SDS011;1020;48.854;8.830;2023-05-07T10:50:37;3.50;;;3.27;;
2029;SDS011;1020;48.854;8.830;2023-05-07T10:53:23;3.93;;;3.63;;
2029;SDS011;1020;48.854;8.830;2023-05-07T10:55:51;3.70;;;3.50;;
2029;SDS011;1020;48.854;8.830;2023-05-07T10:58:42;3.60;;;3.40;;
2029;SDS011;1020;48.854;8.830;2023-05-07T11:01:10;3.90;;;3.60;;
2029;SDS011;1020;48.854;8.830;2023-05-07T11:04:12;3.53;;;3.33;;
2029;SDS011;1020;48.854;8.830;2023-05-07T11:06:40;4.67;;;4.27;;
2029;SDS011;1020;48.854;8.830;2023-05-07T11:09:07;3.90;;;3.60;;
2029;SDS011;1020;48.854;8.830;2023-05-07T11:11:46;4.70;;;4.40;;
2029;SDS011;1020;48.854;8.830;2023-05-07T11:14:22;3.77;;;3.50;;
2029;SDS011;1020;48.854;8.830;2023-05-07T11:17:09;4.17;;;3.97;;
2029;SDS011;1020;48.854;8.830;2023-05-07T11:19:49;3.67;;;3.47;;
2029;SDS011;1020;48.854;8.830;2023-05-07T11:25:06;4.07;;;3.67;;
2029;SDS011;1020;48.854;8.830;2023-05-07T11:27:33;3.90;;;3.60;;
2029;SDS011;1020;48.854;8.830;2023-05-07T11:30:00;4.20;;;3.80;;
2029;SDS011;1020;48.854;8.830;2023-05-07T11:32:27;4.33;;;3.93;;
2029;SDS011;1020;48.854;8.830;2023-05-07T11:34:56;4.00;;;3.30;;
2029;SDS011;1020;48.854;8.830;2023-05-07T11:37:23;3.97;;;3.67;;
2029;SDS011;1020;48.854;8.830;2023-05-07T11:39:53;4.07;;;3.77;;
2029;SDS011;1020;48.854;8.830;2023-05-07T11:42:31;3.77;;;3.57;;
2029;SDS011;1020;48.854;8.830;2023-05-07T11:44:58;4.23;;;3.83;;
2029;SDS011;1020;48.854;8.830;2023-05-07T11:47:25;4.13;;;3.83;;
2029;SDS011;1020;48.854;8.830;2023-05-07T11:49:52;4.33;;;4.03;;
2029;SDS011;1020;48.854;8.830;2023-05-07T11:52:20;4.43;;;4.13;;
2029;SDS011;1020;48.854;8.830;2023-05-07T11:54:48;3.83;;;3.63;;
2029;SDS011;1020;48.854;8.830;2023-05-07T11:57:17;3.73;;;3.43;;
2029;SDS011;1020;48.854;8.830;2023-05-07T11:59:44;4.60;;;4.20;;
2029;SDS011;1020;48.854;8.830;2023-05-07T12:02:13;3.60;;;3.40;;
2029;SDS011;1020;48.854;8.830;2023-05-07T12:04:40;3.50;;;3.30;;
2029;SDS011;1020;48.854;8.830;2023-05-07T12:07:10;4.17;;;3.87;;
2029;SDS011;1020;48.854;8.830;2023-05-07T12:09:38;4.00;;;3.70;;
2029;SDS011;1020;48.854;8.830;2023-05-07T12:12:05;4.10;;;3.90;;
2029;SDS011;1020;48.854;8.830;2023-05-07T12:14:33;3.50;;;3.30;;
2029;SDS011;1020;48.854;8.830;2023-05-07T12:17:04;3.67;;;3.37;;
2029;SDS011;1020;48.854;8.830;2023-05-07T12:19:31;3.93;;;2.93;;
2029;SDS011;1020;48.854;8.830;2023-05-07T12:22:00;3.47;;;3.17;;
2029;SDS011;1020;48.854;8.830;2023-05-07T12:24:28;3.63;;;3.43;;
2029;SDS011;1020;48.854;8.830;2023-05-07T12:26:55;3.50;;;3.30;;
2029;SDS011;1020;48.854;8.830;2023-05-07T12:29:21;4.10;;;3.80;;
2029;SDS011;1020;48.854;8.830;2023-05-07T12:31:50;4.23;;;4.03;;
2029;SDS011;1020;48.854;8.830;2023-05-07T12:34:17;4.20;;;3.87;;
2029;SDS011;1020;48.854;8.830;2023-05-07T12:36:44;3.70;;;3.40;;
2029;SDS011;1020;48.854;8.830;2023-05-07T12:39:11;3.40;;;3.10;;
2029;SDS011;1020;48.854;8.830;2023-05-07T12:41:52;3.97;;;3.67;;
2029;SDS011;1020;48.854;8.830;2023-05-07T12:44:21;3.60;;;3.40;;
2029;SDS011;1020;48.854;8.830;2023-05-07T12:46:48;3.53;;;3.33;;
2029;SDS011;1020;48.854;8.830;2023-05-07T12:49:16;4.00;;;3.60;;
2029;SDS011;1020;48.854;8.830;2023-05-07T12:51:43;3.73;;;3.43;;
2029;SDS011;1020;48.854;8.830;2023-05-07T12:54:12;3.30;;;3.10;;
2029;SDS011;1020;48.854;8.830;2023-05-07T12:56:39;5.60;;;3.90;;
2029;SDS011;1020;48.854;8.830;2023-05-07T12:59:06;3.90;;;3.60;;
2029;SDS011;1020;48.854;8.830;2023-05-07T13:01:34;3.90;;;3.70;;
2029;SDS011;1020;48.854;8.830;2023-05-07T13:04:02;3.97;;;3.60;;
2029;SDS011;1020;48.854;8.830;2023-05-07T13:06:32;5.53;;;4.20;;
2029;SDS011;1020;48.854;8.830;2023-05-07T13:08:58;4.30;;;3.90;;
2029;SDS011;1020;48.854;8.830;2023-05-07T13:11:25;4.20;;;3.90;;
2029;SDS011;1020;48.854;8.830;2023-05-07T13:13:52;4.77;;;4.37;;
2029;SDS011;1020;48.854;8.830;2023-05-07T13:16:18;3.47;;;3.20;;
2029;SDS011;1020;48.854;8.830;2023-05-07T13:18:45;4.23;;;3.93;;
2029;SDS011;1020;48.854;8.830;2023-05-07T13:21:12;4.20;;;3.80;;
2029;SDS011;1020;48.854;8.830;2023-05-07T13:23:40;4.73;;;2.87;;
2029;SDS011;1020;48.854;8.830;2023-05-07T13:26:07;3.50;;;3.20;;
2029;SDS011;1020;48.854;8.830;2023-05-07T13:28:34;3.50;;;3.20;;
2029;SDS011;1020;48.854;8.830;2023-05-07T13:31:00;2.90;;;2.30;;
2029;SDS011;1020;48.854;8.830;2023-05-07T13:33:27;1.97;;;1.87;;
2029;SDS011;1020;48.854;8.830;2023-05-07T13:35:54;1.67;;;1.50;;
2029;SDS011;1020;48.854;8.830;2023-05-07T13:38:22;2.90;;;1.80;;
2029;SDS011;1020;48.854;8.830;2023-05-07T13:40:50;2.40;;;2.20;;
2029;SDS011;1020;48.854;8.830;2023-05-07T13:43:17;2.20;;;2.00;;
2029;SDS011;1020;48.854;8.830;2023-05-07T13:45:45;2.00;;;1.70;;
2029;SDS011;1020;48.854;8.830;2023-05-07T13:48:11;1.90;;;1.80;;
2029;SDS011;1020;48.854;8.830;2023-05-07T13:50:38;2.30;;;1.80;;
2029;SDS011;1020;48.854;8.830;2023-05-07T13:53:05;1.90;;;1.80;;
2029;SDS011;1020;48.854;8.830;2023-05-07T13:55:33;2.60;;;1.70;;
2029;SDS011;1020;48.854;8.830;2023-05-07T13:58:01;2.37;;;2.17;;
2029;SDS011;1020;48.854;8.830;2023-05-07T14:00:29;2.60;;;2.40;;
2029;SDS011;1020;48.854;8.830;2023-05-07T14:02:56;3.50;;;3.20;;
2029;SDS011;1020;48.854;8.830;2023-05-07T14:05:22;2.93;;;2.73;;
2029;SDS011;1020;48.854;8.830;2023-05-07T14:07:49;2.83;;;2.60;;
2029;SDS011;1020;48.854;8.830;2023-05-07T14:10:17;3.40;;;3.10;;
2029;SDS011;1020;48.854;8.830;2023-05-07T14:12:44;3.00;;;2.80;;
2029;SDS011;1020;48.854;8.830;2023-05-07T14:15:13;3.10;;;2.83;;
2029;SDS011;1020;48.854;8.830;2023-05-07T14:17:39;3.23;;;3.00;;
2029;SDS011;1020;48.854;8.830;2023-05-07T14:20:07;5.50;;;3.73;;
2029;SDS011;1020;48.854;8.830;2023-05-07T14:22:35;4.90;;;3.67;;
2029;SDS011;1020;48.854;8.830;2023-05-07T14:25:02;3.60;;;3.30;;
2029;SDS011;1020;48.854;8.830;2023-05-07T14:27:29;3.90;;;3.47;;
2029;SDS011;1020;48.854;8.830;2023-05-07T14:29:56;4.90;;;3.60;;
2029;SDS011;1020;48.854;8.830;2023-05-07T14:32:24;3.37;;;3.07;;
2029;SDS011;1020;48.854;8.830;2023-05-07T14:34:51;4.10;;;3.70;;
2029;SDS011;1020;48.854;8.830;2023-05-07T14:37:18;3.23;;;2.93;;
2029;SDS011;1020;48.854;8.830;2023-05-07T14:39:45;2.80;;;2.60;;
2029;SDS011;1020;48.854;8.830;2023-05-07T14:42:12;3.10;;;2.90;;
2029;SDS011;1020;48.854;8.830;2023-05-07T14:44:38;3.93;;;3.60;;
2029;SDS011;1020;48.854;8.830;2023-05-07T14:47:06;3.30;;;3.00;;
2029;SDS011;1020;48.854;8.830;2023-05-07T14:49:35;2.57;;;2.40;;
2029;SDS011;1020;48.854;8.830;2023-05-07T14:52:02;3.40;;;2.80;;
2029;SDS011;1020;48.854;8.830;2023-05-07T14:54:31;3.47;;;3.17;;
2029;SDS011;1020;48.854;8.830;2023-05-07T14:56:59;6.60;;;3.50;;
2029;SDS011;1020;48.854;8.830;2023-05-07T14:59:26;3.87;;;3.57;;
2029;SDS011;1020;48.854;8.830;2023-05-07T15:01:53;3.60;;;3.30;;
2029;SDS011;1020;48.854;8.830;2023-05-07T15:04:20;3.70;;;3.40;;
2029;SDS011;1020;48.854;8.830;2023-05-07T15:06:48;3.10;;;2.90;;
2029;SDS011;1020;48.854;8.830;2023-05-07T15:09:15;3.80;;;3.50;;
2029;SDS011;1020;48.854;8.830;2023-05-07T15:11:42;3.30;;;3.00;;
2029;SDS011;1020;48.854;8.830;2023-05-07T15:14:08;3.00;;;2.80;;
2029;SDS011;1020;48.854;8.830;2023-05-07T15:16:35;3.10;;;2.87;;
2029;SDS011;1020;48.854;8.830;2023-05-07T15:19:02;3.37;;;3.07;;
2029;SDS011;1020;48.854;8.830;2023-05-07T15:21:29;3.33;;;3.13;;
2029;SDS011;1020;48.854;8.830;2023-05-07T15:24:00;3.67;;;3.43;;
2029;SDS011;1020;48.854;8.830;2023-05-07T15:26:27;3.10;;;2.90;;
2029;SDS011;1020;48.854;8.830;2023-05-07T15:28:54;3.70;;;3.50;;